createdAt,value
2022-09-30T00:00:11.817Z,12.13
2022-09-30T00:05:17.184Z,11.68
2022-09-30T00:10:20.652Z,12.20
2022-09-30T00:15:24.146Z,12.90
2022-09-30T00:20:28.948Z,12.90
2022-09-30T00:25:32.361Z,11.50
2022-09-30T00:30:35.937Z,10.95
2022-09-30T00:35:40.729Z,12.07
2022-09-30T00:40:46.555Z,11.77
2022-09-30T00:45:55.030Z,12.48
2022-09-30T00:51:00.005Z,11.77
2022-09-30T00:56:07.440Z,10.52
2022-09-30T01:01:11.261Z,10.05
2022-09-30T01:06:16.047Z,10.68
2022-09-30T01:11:19.995Z,11.48
2022-09-30T01:16:44.902Z,11.38
2022-09-30T01:22:20.852Z,10.15
2022-09-30T01:27:41.293Z,10.95
2022-09-30T01:32:59.283Z,9.77
2022-09-30T01:38:11.868Z,9.05
2022-09-30T01:43:25.953Z,9.82
2022-09-30T01:48:40.655Z,9.70
2022-09-30T01:53:48.481Z,9.90
2022-09-30T01:58:57.372Z,9.80
2022-09-30T02:04:07.814Z,9.70
2022-09-30T02:09:16.004Z,6.60
2022-09-30T02:14:24.757Z,7.80
2022-09-30T02:19:35.080Z,7.95
2022-09-30T02:24:39.185Z,8.07
2022-09-30T02:29:47.396Z,8.77
2022-09-30T02:34:57.178Z,8.88
2022-09-30T02:40:06.168Z,9.75
2022-09-30T02:45:12.659Z,9.70
2022-09-30T02:50:23.729Z,8.93
2022-09-30T02:55:32.290Z,8.73
2022-09-30T03:00:35.901Z,9.13
2022-09-30T03:05:40.827Z,9.80
2022-09-30T03:10:45.023Z,8.40
2022-09-30T03:15:59.459Z,9.25
2022-09-30T03:21:15.525Z,9.15
2022-09-30T03:26:28.185Z,10.10
2022-09-30T03:31:42.913Z,9.93
2022-09-30T03:37:04.007Z,12.25
2022-09-30T03:42:17.258Z,12.52
2022-09-30T03:47:26.326Z,13.73
2022-09-30T03:52:34.217Z,11.50
2022-09-30T03:57:37.932Z,12.75
2022-09-30T04:02:41.677Z,10.23
2022-09-30T04:07:47.137Z,11.48
2022-09-30T04:12:50.581Z,11.32
2022-09-30T04:17:54.085Z,11.55
2022-09-30T04:22:59.784Z,11.52
2022-09-30T04:28:03.454Z,12.35
2022-09-30T04:33:06.942Z,14.77
2022-09-30T04:38:11.735Z,12.52
2022-09-30T04:43:15.140Z,11.52
2022-09-30T04:48:18.568Z,11.75
2022-09-30T04:53:23.386Z,11.60
2022-09-30T04:58:26.909Z,11.98
2022-09-30T05:03:30.786Z,12.80
2022-09-30T05:08:36.136Z,10.55
2022-09-30T05:13:41.098Z,11.45
2022-09-30T05:18:46.226Z,9.52
2022-09-30T05:23:51.210Z,10.35
2022-09-30T05:28:54.696Z,9.40
2022-09-30T05:33:58.485Z,7.82
2022-09-30T05:39:03.346Z,6.43
2022-09-30T05:44:09.223Z,7.25
2022-09-30T05:49:12.630Z,6.03
2022-09-30T05:54:17.418Z,6.78
2022-09-30T05:59:20.989Z,7.15
2022-09-30T06:04:24.456Z,6.75
2022-09-30T06:09:29.249Z,6.88
2022-09-30T06:14:32.932Z,7.15
2022-09-30T06:19:36.414Z,7.65
2022-09-30T06:24:41.670Z,8.40
2022-09-30T06:29:47.231Z,8.25
2022-09-30T06:34:50.873Z,8.10
2022-09-30T06:39:56.000Z,8.13
2022-09-30T06:44:59.509Z,9.20
2022-09-30T06:50:03.192Z,9.48
2022-09-30T06:55:09.004Z,10.45
2022-09-30T07:00:14.254Z,12.40
2022-09-30T07:05:19.171Z,14.95
2022-09-30T07:10:24.197Z,15.25
2022-09-30T07:15:27.853Z,14.65
2022-09-30T07:20:31.498Z,16.95
2022-09-30T07:25:36.841Z,19.40
2022-09-30T07:30:43.637Z,20.00
2022-09-30T07:35:54.633Z,57.90
2022-09-30T07:41:02.247Z,25.67
2022-09-30T07:46:07.572Z,26.88
2022-09-30T07:51:12.491Z,26.08
2022-09-30T07:56:18.839Z,21.75
2022-09-30T08:01:23.284Z,24.20
2022-09-30T08:06:29.110Z,22.48
2022-09-30T08:11:36.902Z,29.92
2022-09-30T08:16:40.592Z,25.35
2022-09-30T08:21:44.822Z,29.88
2022-09-30T08:26:49.818Z,38.97
2022-09-30T08:31:53.528Z,28.85
2022-09-30T08:36:59.624Z,28.92
2022-09-30T08:42:35.968Z,33.95
2022-09-30T08:47:48.172Z,32.28
2022-09-30T08:52:55.054Z,31.17
2022-09-30T08:58:05.486Z,30.70
2022-09-30T09:03:14.271Z,30.23
2022-09-30T09:08:28.155Z,29.35
2022-09-30T09:13:50.119Z,30.02
2022-09-30T09:19:00.648Z,37.05
2022-09-30T09:24:07.132Z,31.00
2022-09-30T09:29:25.557Z,30.52
2022-09-30T09:34:35.830Z,31.67
2022-09-30T09:40:09.503Z,30.27
2022-09-30T09:45:24.632Z,28.77
2022-09-30T09:50:39.738Z,26.77
2022-09-30T09:55:43.893Z,28.70
2022-09-30T10:01:11.345Z,26.17
2022-09-30T10:06:15.060Z,26.25
2022-09-30T10:11:22.609Z,26.05
2022-09-30T10:16:35.395Z,26.60
2022-09-30T10:21:38.852Z,28.90
2022-09-30T10:26:48.640Z,24.13
2022-09-30T10:31:59.004Z,24.20
2022-09-30T10:37:10.788Z,20.13
2022-09-30T10:42:26.513Z,18.47
2022-09-30T10:47:36.598Z,15.77
2022-09-30T10:52:50.261Z,14.97
2022-09-30T10:57:55.143Z,14.07
2022-09-30T11:03:05.693Z,14.45
2022-09-30T11:08:18.065Z,11.30
2022-09-30T11:13:29.723Z,13.88
2022-09-30T11:18:43.246Z,10.48
2022-09-30T11:23:54.085Z,11.27
2022-09-30T11:29:13.429Z,10.77
2022-09-30T11:34:33.535Z,12.88
2022-09-30T11:40:00.289Z,14.85
2022-09-30T11:45:17.714Z,12.80
2022-09-30T11:50:33.691Z,13.60
2022-09-30T11:55:49.128Z,13.52
2022-09-30T12:00:56.759Z,14.05
2022-09-30T12:06:08.573Z,11.70
2022-09-30T12:11:16.179Z,11.00
2022-09-30T12:16:24.290Z,9.07
2022-09-30T12:21:34.110Z,8.32
2022-09-30T12:26:38.184Z,7.70
2022-09-30T12:32:06.389Z,5.75
2022-09-30T12:37:41.813Z,5.18
2022-09-30T12:43:05.574Z,5.00
2022-09-30T12:48:17.148Z,4.30
2022-09-30T12:53:27.156Z,4.65
2022-09-30T12:58:35.377Z,3.60
2022-09-30T13:03:53.308Z,3.13
2022-09-30T13:09:22.404Z,2.90
2022-09-30T13:14:34.043Z,2.65
2022-09-30T13:19:40.505Z,2.50
2022-09-30T13:25:12.403Z,2.85
2022-09-30T13:30:42.725Z,2.60
2022-09-30T13:35:52.699Z,2.23
2022-09-30T13:41:03.473Z,2.53
2022-09-30T13:51:15.833Z,1.73
2022-09-30T13:56:25.197Z,1.80
2022-09-30T14:01:44.620Z,2.30
2022-09-30T14:07:01.217Z,2.10
2022-09-30T14:12:20.890Z,1.98
2022-09-30T14:17:41.417Z,1.67
2022-09-30T14:22:45.602Z,2.05
2022-09-30T14:28:14.854Z,1.88
2022-09-30T14:33:25.081Z,1.80
2022-09-30T14:38:31.126Z,1.50
2022-09-30T14:43:42.709Z,2.03
2022-09-30T14:48:49.881Z,1.25
2022-09-30T14:53:55.834Z,1.90
2022-09-30T14:59:01.832Z,1.55
2022-09-30T15:04:09.165Z,1.63
2022-09-30T15:09:18.976Z,3.75
2022-09-30T15:14:25.610Z,1.30
2022-09-30T15:19:30.980Z,1.52
2022-09-30T15:24:36.946Z,1.50
2022-09-30T15:29:55.049Z,1.45
2022-09-30T15:34:58.947Z,1.30
2022-09-30T15:40:17.859Z,1.30
2022-09-30T15:45:34.965Z,1.55
2022-09-30T15:50:42.093Z,1.55
2022-09-30T15:55:48.400Z,1.70
2022-09-30T16:00:55.121Z,1.90
2022-09-30T16:06:08.312Z,6.50
2022-09-30T16:11:21.301Z,2.00
2022-09-30T16:16:29.213Z,1.83
2022-09-30T16:21:50.852Z,1.67
2022-09-30T16:26:55.823Z,1.67
2022-09-30T16:32:00.978Z,1.52
2022-09-30T16:37:11.454Z,1.85
2022-09-30T16:42:16.257Z,1.97
2022-09-30T16:47:21.243Z,2.13
2022-09-30T16:52:24.878Z,2.22
2022-09-30T16:57:28.455Z,3.00
2022-09-30T17:02:33.576Z,6.38
2022-09-30T17:07:37.045Z,1.98
2022-09-30T17:12:40.591Z,1.52
2022-09-30T17:17:45.680Z,2.47
2022-09-30T17:22:49.714Z,1.80
2022-09-30T17:27:53.270Z,2.05
2022-09-30T17:32:59.197Z,1.90
2022-09-30T17:38:02.780Z,1.98
2022-09-30T17:43:11.173Z,1.70
2022-09-30T17:48:18.480Z,1.80
2022-09-30T17:53:22.609Z,2.78
2022-09-30T17:58:26.181Z,9.63
2022-09-30T18:03:32.377Z,3.58
2022-09-30T18:08:35.988Z,3.85
2022-09-30T18:13:39.574Z,3.97
2022-09-30T18:18:44.473Z,3.08
2022-09-30T18:23:48.075Z,2.70
2022-09-30T18:28:52.649Z,3.28
2022-09-30T18:33:58.650Z,2.83
2022-09-30T18:39:02.970Z,3.10
2022-09-30T18:44:06.706Z,4.05
2022-09-30T18:49:12.160Z,3.88
2022-09-30T18:54:16.343Z,3.63
2022-09-30T18:59:23.245Z,3.53
2022-09-30T19:04:29.194Z,3.30
2022-09-30T19:09:33.104Z,3.38
2022-09-30T19:14:38.052Z,3.47
2022-09-30T19:19:45.438Z,3.35
2022-09-30T19:24:48.933Z,3.97
2022-09-30T19:29:57.242Z,4.25
2022-09-30T19:35:06.635Z,3.83
2022-09-30T19:40:20.992Z,3.15
2022-09-30T19:45:27.228Z,2.80
2022-09-30T19:50:32.299Z,3.65
2022-09-30T19:55:45.972Z,4.10
2022-09-30T20:00:56.292Z,3.50
2022-09-30T20:06:03.663Z,3.33
2022-09-30T20:11:09.507Z,3.38
2022-09-30T20:16:15.096Z,3.42
2022-09-30T20:21:19.956Z,11.00
2022-09-30T20:26:23.759Z,3.40
2022-09-30T20:31:28.631Z,3.38
2022-09-30T20:36:35.056Z,2.92
2022-09-30T20:41:39.878Z,2.75
2022-09-30T20:46:44.038Z,2.70
2022-09-30T20:51:49.123Z,2.75
2022-09-30T20:57:06.913Z,4.32
2022-09-30T21:02:14.065Z,2.83
2022-09-30T21:07:19.046Z,2.75
2022-09-30T21:12:22.570Z,2.63
2022-09-30T21:17:26.013Z,8.20
2022-09-30T21:22:30.807Z,3.90
2022-09-30T21:27:35.058Z,3.28
2022-09-30T21:32:38.740Z,3.50
2022-09-30T21:37:44.155Z,3.40
2022-09-30T21:42:47.704Z,3.35
2022-09-30T21:47:51.165Z,3.15
2022-09-30T21:52:58.688Z,3.30
2022-09-30T21:58:02.283Z,3.30
2022-09-30T22:03:05.712Z,3.50
2022-09-30T22:08:10.551Z,3.80
2022-09-30T22:13:15.500Z,4.13
2022-09-30T22:18:20.383Z,3.83
2022-09-30T22:23:25.193Z,4.43
2022-09-30T22:28:28.605Z,4.80
2022-09-30T22:33:49.719Z,4.85
2022-09-30T22:38:54.532Z,17.27
2022-09-30T22:43:57.948Z,5.85
2022-09-30T22:49:01.431Z,5.40
2022-09-30T22:54:06.369Z,5.32
2022-09-30T22:59:09.827Z,5.28
2022-09-30T23:04:17.178Z,6.00
2022-09-30T23:09:22.310Z,5.97
2022-09-30T23:14:26.276Z,5.65
2022-09-30T23:19:29.729Z,5.35
2022-09-30T23:24:34.577Z,5.88
2022-09-30T23:29:38.048Z,5.97
2022-09-30T23:34:41.462Z,5.70
2022-09-30T23:39:46.258Z,6.20
2022-09-30T23:44:49.658Z,6.55
2022-09-30T23:49:55.407Z,6.88
2022-09-30T23:55:00.163Z,6.80
